createdAt,value
2023-04-04T00:01:11.731Z,9.73
2023-04-04T00:03:44.546Z,9.78
2023-04-04T00:06:13.298Z,9.79
2023-04-04T00:08:41.626Z,9.75
2023-04-04T00:11:17.338Z,9.70
2023-04-04T00:13:47.804Z,9.68
2023-04-04T00:16:16.447Z,9.68
2023-04-04T00:18:53.977Z,9.64
2023-04-04T00:21:27.924Z,9.64
2023-04-04T00:24:00.044Z,9.63
2023-04-04T00:26:28.802Z,9.61
2023-04-04T00:28:58.241Z,9.59
2023-04-04T00:31:29.327Z,9.61
2023-04-04T00:33:57.504Z,9.63
2023-04-04T00:40:29.164Z,9.57
2023-04-04T00:43:00.862Z,9.61
2023-04-04T00:45:29.555Z,9.66
2023-04-04T00:47:59.291Z,9.72
2023-04-04T00:50:29.798Z,9.68
2023-04-04T00:53:01.558Z,9.70
2023-04-04T00:55:30.353Z,9.66
2023-04-04T00:58:01.434Z,9.62
2023-04-04T01:00:29.974Z,9.62
2023-04-04T01:03:18.732Z,9.64
2023-04-04T01:05:47.382Z,9.63
2023-04-04T01:08:20.346Z,9.67
2023-04-04T01:10:49.295Z,9.65
2023-04-04T01:13:18.071Z,9.61
2023-04-04T01:15:46.294Z,9.62
2023-04-04T01:18:20.947Z,9.63
2023-04-04T01:20:59.754Z,9.60
2023-04-04T01:23:37.459Z,9.63
2023-04-04T01:26:08.419Z,9.64
2023-04-04T01:28:36.597Z,9.65
2023-04-04T01:31:07.518Z,9.67
2023-04-04T01:33:43.958Z,9.65
2023-04-04T01:36:33.218Z,9.71
2023-04-04T01:39:23.707Z,9.71
2023-04-04T01:41:52.650Z,9.69
2023-04-04T01:44:21.002Z,9.68
2023-04-04T01:46:55.351Z,9.67
2023-04-04T01:49:25.615Z,9.64
2023-04-04T01:51:59.354Z,9.58
2023-04-04T01:54:28.840Z,9.59
2023-04-04T01:56:58.437Z,9.64
2023-04-04T01:59:26.983Z,9.63
2023-04-04T02:01:55.476Z,9.69
2023-04-04T02:04:23.828Z,9.72
2023-04-04T02:06:59.651Z,9.71
2023-04-04T02:09:28.462Z,9.71
2023-04-04T02:12:00.341Z,9.72
2023-04-04T02:14:32.582Z,9.72
2023-04-04T02:17:01.243Z,9.70
2023-04-04T02:19:30.142Z,9.70
2023-04-04T02:22:01.697Z,9.67
2023-04-04T02:24:30.153Z,9.69
2023-04-04T02:26:58.309Z,9.66
2023-04-04T02:29:31.708Z,9.66
2023-04-04T02:32:00.161Z,9.65
2023-04-04T02:34:28.366Z,9.61
2023-04-04T02:36:56.810Z,9.60
2023-04-04T02:39:28.034Z,9.58
2023-04-04T02:41:57.871Z,9.57
2023-04-04T02:44:26.271Z,9.59
2023-04-04T02:46:56.699Z,9.60
2023-04-04T02:49:26.972Z,9.63
2023-04-04T02:51:55.295Z,9.64
2023-04-04T02:54:23.708Z,9.63
2023-04-04T02:56:53.082Z,9.65
2023-04-04T02:59:21.990Z,9.66
2023-04-04T03:01:50.756Z,9.65
2023-04-04T03:04:21.850Z,9.69
2023-04-04T03:06:50.638Z,9.72
2023-04-04T03:09:19.451Z,9.72
2023-04-04T03:11:52.243Z,9.72
2023-04-04T03:14:27.088Z,9.70
2023-04-04T03:16:57.679Z,9.69
2023-04-04T03:19:26.402Z,9.74
2023-04-04T03:21:54.807Z,9.73
2023-04-04T03:24:26.719Z,9.71
2023-04-04T03:26:57.668Z,9.74
2023-04-04T03:29:26.653Z,9.74
2023-04-04T03:31:55.176Z,9.62
2023-04-04T03:34:25.172Z,9.64
2023-04-04T03:36:54.313Z,9.64
2023-04-04T03:39:28.265Z,9.62
2023-04-04T03:42:00.370Z,9.64
2023-04-04T03:44:28.657Z,9.67
2023-04-04T03:46:58.447Z,9.74
2023-04-04T03:49:28.328Z,9.80
2023-04-04T03:52:00.595Z,9.85
2023-04-04T03:54:29.857Z,9.90
2023-04-04T03:57:05.424Z,9.93
2023-04-04T03:59:35.503Z,10.00
2023-04-04T04:02:06.110Z,10.07
2023-04-04T04:04:34.414Z,10.05
2023-04-04T04:07:03.071Z,10.07
2023-04-04T04:09:31.585Z,10.18
2023-04-04T04:12:02.211Z,10.28
2023-04-04T04:14:31.311Z,10.26
2023-04-04T04:16:59.913Z,10.36
2023-04-04T04:19:28.307Z,10.37
2023-04-04T04:21:56.644Z,10.43
2023-04-04T04:24:24.694Z,10.52
2023-04-04T04:26:52.870Z,10.58
2023-04-04T04:29:25.852Z,10.57
2023-04-04T04:31:54.115Z,10.65
2023-04-04T04:34:22.462Z,10.66
2023-04-04T04:36:53.081Z,10.71
2023-04-04T04:39:26.383Z,10.63
2023-04-04T04:41:54.882Z,10.59
2023-04-04T04:44:25.074Z,10.66
2023-04-04T04:46:54.023Z,10.68
2023-04-04T04:49:23.719Z,10.67
2023-04-04T04:51:55.277Z,10.70
2023-04-04T04:54:25.047Z,10.80
2023-04-04T04:56:57.511Z,10.92
2023-04-04T04:59:28.986Z,11.04
2023-04-04T05:02:00.824Z,11.23
2023-04-04T05:04:29.999Z,11.16
2023-04-04T05:06:58.207Z,11.12
2023-04-04T05:09:36.280Z,11.21
2023-04-04T05:12:04.830Z,11.35
2023-04-04T05:14:32.867Z,11.63
2023-04-04T05:17:02.548Z,11.88
2023-04-04T05:19:31.933Z,12.23
2023-04-04T05:22:00.739Z,12.18
2023-04-04T05:24:47.109Z,12.24
2023-04-04T05:27:15.218Z,12.57
2023-04-04T05:29:47.138Z,12.57
2023-04-04T05:32:22.188Z,12.52
2023-04-04T05:34:51.025Z,12.65
2023-04-04T05:37:21.453Z,12.59
2023-04-04T05:39:52.621Z,12.76
2023-04-04T05:42:20.822Z,12.88
2023-04-04T05:44:48.969Z,12.99
2023-04-04T05:47:18.035Z,13.09
2023-04-04T05:49:46.563Z,13.07
2023-04-04T05:52:21.745Z,12.77
2023-04-04T05:54:50.020Z,12.70
2023-04-04T05:57:18.183Z,13.02
2023-04-04T05:59:51.579Z,13.25
2023-04-04T06:02:21.432Z,12.87
2023-04-04T06:04:52.663Z,12.78
2023-04-04T06:07:21.385Z,13.05
2023-04-04T06:09:49.735Z,13.13
2023-04-04T06:12:17.987Z,12.96
2023-04-04T06:14:47.489Z,13.14
2023-04-04T06:17:19.393Z,12.91
2023-04-04T06:19:50.486Z,13.01
2023-04-04T06:22:19.230Z,13.14
2023-04-04T06:24:47.558Z,13.38
2023-04-04T06:27:22.079Z,13.52
2023-04-04T06:29:50.468Z,13.48
2023-04-04T06:32:18.864Z,13.60
2023-04-04T06:34:47.702Z,13.83
2023-04-04T06:37:15.989Z,14.05
2023-04-04T06:39:45.801Z,14.27
2023-04-04T06:42:14.314Z,14.33
2023-04-04T06:44:42.808Z,14.25
2023-04-04T06:47:11.177Z,14.27
2023-04-04T06:49:39.134Z,14.09
2023-04-04T06:52:10.092Z,14.50
2023-04-04T06:54:38.923Z,14.27
2023-04-04T06:57:07.840Z,14.27
2023-04-04T06:59:39.975Z,14.40
2023-04-04T07:02:08.375Z,14.72
2023-04-04T07:04:46.625Z,14.57
2023-04-04T07:07:15.250Z,14.76
2023-04-04T07:09:43.929Z,14.61
2023-04-04T07:12:12.254Z,15.11
2023-04-04T07:14:40.631Z,15.52
2023-04-04T07:17:21.316Z,15.93
2023-04-04T07:19:52.359Z,16.04
2023-04-04T07:22:20.598Z,15.81
2023-04-04T07:24:49.460Z,15.96
2023-04-04T07:27:18.592Z,15.94
2023-04-04T07:29:47.144Z,16.17
2023-04-04T07:32:16.069Z,16.07
2023-04-04T07:35:02.444Z,15.76
2023-04-04T07:37:30.748Z,15.75
2023-04-04T07:40:00.429Z,15.89
2023-04-04T07:42:28.619Z,16.38
2023-04-04T07:44:57.400Z,16.51
2023-04-04T07:47:26.380Z,16.69
2023-04-04T07:49:54.765Z,16.77
2023-04-04T07:52:23.171Z,17.02
2023-04-04T07:54:53.104Z,16.63
2023-04-04T07:57:23.913Z,16.61
2023-04-04T07:59:58.828Z,16.41
2023-04-04T08:02:31.891Z,16.15
2023-04-04T08:05:00.047Z,15.90
2023-04-04T08:07:30.400Z,15.59
2023-04-04T08:10:00.924Z,15.76
2023-04-04T08:12:29.677Z,15.82
2023-04-04T08:14:57.887Z,15.93
2023-04-04T08:17:27.875Z,16.12
2023-04-04T08:19:59.191Z,15.51
2023-04-04T08:22:27.487Z,15.36
2023-04-04T08:24:57.362Z,15.27
2023-04-04T08:27:28.141Z,15.43
2023-04-04T08:29:59.191Z,15.89
2023-04-04T08:32:27.350Z,16.01
2023-04-04T08:34:57.008Z,15.88
2023-04-04T08:37:25.415Z,16.10
2023-04-04T08:39:56.566Z,16.56
2023-04-04T08:42:25.795Z,16.53
2023-04-04T08:44:55.627Z,16.60
2023-04-04T08:47:25.026Z,16.73
2023-04-04T08:49:54.885Z,16.67
2023-04-04T08:52:26.145Z,16.54
2023-04-04T08:54:54.664Z,16.77
2023-04-04T08:57:22.721Z,16.75
2023-04-04T08:59:50.821Z,17.02
2023-04-04T09:02:30.317Z,17.09
2023-04-04T09:05:06.304Z,16.93
2023-04-04T09:07:38.842Z,16.68
2023-04-04T09:10:13.402Z,16.59
2023-04-04T09:12:45.264Z,16.61
2023-04-04T09:15:14.466Z,16.31
2023-04-04T09:17:42.997Z,16.21
2023-04-04T09:20:39.091Z,16.19
2023-04-04T09:23:16.189Z,16.27
2023-04-04T09:28:24.804Z,16.09
2023-04-04T09:30:53.264Z,16.40
2023-04-04T09:33:24.533Z,16.44
2023-04-04T09:35:56.937Z,16.45
2023-04-04T09:38:29.722Z,16.50
2023-04-04T09:40:58.292Z,16.57
2023-04-04T09:43:31.229Z,16.73
2023-04-04T09:46:02.111Z,16.95
2023-04-04T09:48:37.302Z,16.94
2023-04-04T09:51:07.186Z,17.16
2023-04-04T09:53:37.574Z,17.21
2023-04-04T09:56:07.720Z,17.16
2023-04-04T09:58:46.370Z,17.57
2023-04-04T10:01:18.347Z,17.70
2023-04-04T10:04:00.228Z,17.65
2023-04-04T10:06:28.512Z,17.75
2023-04-04T10:09:00.360Z,17.52
2023-04-04T10:11:34.412Z,17.37
2023-04-04T10:14:05.505Z,17.37
2023-04-04T10:16:38.756Z,17.47
2023-04-04T10:19:08.095Z,17.41
2023-04-04T10:21:43.902Z,17.31
2023-04-04T10:24:14.054Z,17.10
2023-04-04T10:26:45.294Z,17.24
2023-04-04T10:29:13.432Z,17.23
2023-04-04T10:31:48.118Z,16.96
2023-04-04T10:34:27.136Z,16.83
2023-04-04T10:37:07.565Z,16.86
2023-04-04T10:39:41.440Z,16.80
2023-04-04T10:42:11.356Z,16.67
2023-04-04T10:44:42.960Z,16.76
2023-04-04T10:47:23.723Z,16.86
2023-04-04T10:49:55.432Z,16.92
2023-04-04T10:52:28.581Z,16.74
2023-04-04T10:54:59.725Z,16.81
2023-04-04T10:57:29.195Z,16.76
2023-04-04T11:00:27.010Z,16.74
2023-04-04T11:03:02.373Z,16.66
2023-04-04T11:05:41.355Z,16.88
2023-04-04T11:08:11.214Z,16.63
2023-04-04T11:10:43.572Z,16.50
2023-04-04T11:13:18.626Z,16.56
2023-04-04T11:16:15.799Z,16.49
2023-04-04T11:18:51.117Z,16.38
2023-04-04T11:21:24.191Z,16.32
2023-04-04T11:23:55.173Z,16.27
2023-04-04T11:26:29.267Z,16.28
2023-04-04T11:29:01.816Z,16.23
2023-04-04T11:31:34.979Z,16.26
2023-04-04T11:34:14.246Z,16.25
2023-04-04T11:36:45.669Z,16.26
2023-04-04T11:39:15.962Z,16.37
2023-04-04T11:42:17.001Z,16.55
2023-04-04T11:44:55.252Z,16.50
2023-04-04T11:47:26.025Z,16.43
2023-04-04T11:49:55.196Z,16.55
2023-04-04T11:52:26.561Z,16.65
2023-04-04T11:54:55.123Z,16.76
2023-04-04T11:57:23.426Z,16.86
2023-04-04T11:59:52.817Z,16.76
2023-04-04T12:02:27.995Z,16.64
2023-04-04T12:04:56.773Z,16.67
2023-04-04T12:07:29.510Z,16.66
2023-04-04T12:09:58.136Z,16.99
2023-04-04T12:12:29.571Z,17.08
2023-04-04T12:15:06.715Z,17.14
2023-04-04T12:17:44.653Z,17.30
2023-04-04T12:20:16.529Z,17.44
2023-04-04T12:22:47.187Z,17.54
2023-04-04T12:25:15.723Z,17.64
2023-04-04T12:27:45.590Z,17.59
2023-04-04T12:30:16.906Z,17.64
2023-04-04T12:32:46.581Z,17.67
2023-04-04T12:35:19.096Z,17.69
2023-04-04T12:38:07.709Z,18.06
2023-04-04T12:40:40.976Z,18.25
2023-04-04T12:43:10.648Z,18.44
2023-04-04T12:45:43.385Z,18.55
2023-04-04T12:48:18.229Z,18.53
2023-04-04T12:50:57.273Z,18.38
2023-04-04T12:53:30.475Z,18.24
2023-04-04T12:56:03.935Z,18.02
2023-04-04T12:58:37.124Z,17.65
2023-04-04T13:01:07.024Z,17.21
2023-04-04T13:03:38.337Z,16.83
2023-04-04T13:06:16.712Z,16.65
2023-04-04T13:08:54.280Z,16.56
2023-04-04T13:11:22.902Z,16.54
2023-04-04T13:14:01.621Z,16.56
2023-04-04T13:16:37.850Z,16.50
2023-04-04T13:19:07.735Z,16.35
2023-04-04T13:21:36.151Z,16.13
2023-04-04T13:24:05.170Z,16.38
2023-04-04T13:26:34.253Z,16.64
2023-04-04T13:29:02.312Z,16.44
2023-04-04T13:31:35.454Z,16.42
2023-04-04T13:34:04.688Z,16.19
2023-04-04T13:36:33.291Z,16.01
2023-04-04T13:39:02.482Z,15.79
2023-04-04T13:41:57.801Z,16.05
2023-04-04T13:44:29.195Z,16.25
2023-04-04T13:47:01.618Z,16.18
2023-04-04T13:49:29.969Z,16.29
2023-04-04T13:52:01.658Z,16.40
2023-04-04T13:54:33.558Z,16.46
2023-04-04T13:57:02.215Z,16.32
2023-04-04T13:59:33.161Z,16.42
2023-04-04T14:02:04.360Z,16.23
2023-04-04T14:04:34.805Z,16.21
2023-04-04T14:07:03.338Z,16.02
2023-04-04T14:09:31.578Z,15.98
2023-04-04T14:12:01.910Z,15.96
2023-04-04T14:14:31.309Z,15.82
2023-04-04T14:17:06.201Z,15.82
2023-04-04T14:19:39.688Z,15.73
2023-04-04T14:22:11.306Z,15.68
2023-04-04T14:24:40.755Z,15.56
2023-04-04T14:27:09.192Z,15.53
2023-04-04T14:29:38.780Z,15.52
2023-04-04T14:32:06.793Z,15.39
2023-04-04T14:34:35.520Z,15.23
2023-04-04T14:37:05.251Z,15.26
2023-04-04T14:39:33.969Z,15.14
2023-04-04T14:42:02.628Z,15.02
2023-04-04T14:44:32.355Z,14.99
2023-04-04T14:47:01.491Z,14.94
2023-04-04T14:49:32.919Z,14.88
2023-04-04T14:52:02.350Z,14.71
2023-04-04T14:54:31.207Z,14.55
2023-04-04T14:56:59.287Z,14.64
2023-04-04T14:59:27.649Z,14.62
2023-04-04T15:01:55.607Z,14.55
2023-04-04T15:04:24.091Z,14.61
2023-04-04T15:06:54.116Z,14.58
2023-04-04T15:09:25.061Z,14.61
2023-04-04T15:12:02.108Z,14.70
2023-04-04T15:14:32.908Z,14.64
2023-04-04T15:17:04.470Z,14.51
2023-04-04T15:19:40.970Z,14.48
2023-04-04T15:22:13.168Z,14.36
2023-04-04T15:24:41.594Z,14.40
2023-04-04T15:27:12.674Z,14.44
2023-04-04T15:29:43.058Z,14.50
2023-04-04T15:32:11.785Z,14.47
2023-04-04T15:34:41.593Z,14.40
2023-04-04T15:37:10.699Z,14.40
2023-04-04T15:39:52.220Z,14.43
2023-04-04T15:42:21.654Z,14.43
2023-04-04T15:44:49.713Z,14.36
2023-04-04T15:47:18.201Z,14.31
2023-04-04T15:49:49.447Z,14.30
2023-04-04T15:52:17.690Z,14.25
2023-04-04T15:54:49.659Z,14.17
2023-04-04T15:57:20.370Z,14.16
2023-04-04T15:59:54.795Z,13.99
2023-04-04T16:02:23.329Z,13.88
2023-04-04T16:04:51.859Z,13.90
2023-04-04T16:07:22.266Z,13.67
2023-04-04T16:09:51.448Z,13.67
2023-04-04T16:12:20.477Z,13.67
2023-04-04T16:14:49.368Z,13.70
2023-04-04T16:17:21.060Z,13.62
2023-04-04T16:19:50.536Z,13.64
2023-04-04T16:22:19.209Z,13.67
2023-04-04T16:24:50.419Z,13.55
2023-04-04T16:27:18.761Z,13.54
2023-04-04T16:29:47.526Z,13.57
2023-04-04T16:32:17.521Z,13.52
2023-04-04T16:34:45.813Z,13.56
2023-04-04T16:37:20.559Z,13.44
2023-04-04T16:39:51.326Z,13.48
2023-04-04T16:42:20.030Z,13.34
2023-04-04T16:44:59.444Z,13.45
2023-04-04T16:47:29.277Z,13.47
2023-04-04T16:49:57.435Z,13.46
2023-04-04T16:52:29.021Z,13.37
2023-04-04T16:55:00.114Z,13.39
2023-04-04T16:57:35.534Z,13.37
2023-04-04T17:00:13.059Z,13.28
2023-04-04T17:03:01.169Z,13.21
2023-04-04T17:05:29.836Z,13.15
2023-04-04T17:08:00.852Z,13.14
2023-04-04T17:10:29.264Z,13.19
2023-04-04T17:13:01.168Z,13.18
2023-04-04T17:15:30.119Z,13.12
2023-04-04T17:17:58.565Z,13.11
2023-04-04T17:20:34.186Z,13.15
2023-04-04T17:23:05.417Z,13.16
2023-04-04T17:25:33.524Z,12.93
2023-04-04T17:28:02.824Z,13.02
2023-04-04T17:30:31.558Z,13.06
2023-04-04T17:33:02.434Z,13.09
2023-04-04T17:35:33.761Z,13.08
2023-04-04T17:38:08.397Z,12.93
2023-04-04T17:40:36.787Z,12.94
2023-04-04T17:43:07.331Z,12.92
2023-04-04T17:45:35.584Z,12.90
2023-04-04T17:48:04.358Z,12.90
2023-04-04T17:50:33.067Z,12.78
2023-04-04T17:53:05.807Z,12.73
2023-04-04T17:55:34.187Z,12.69
2023-04-04T17:58:02.796Z,12.66
2023-04-04T18:00:31.634Z,12.67
2023-04-04T18:03:00.908Z,12.61
2023-04-04T18:05:42.874Z,12.59
2023-04-04T18:08:11.454Z,12.59
2023-04-04T18:10:42.093Z,12.56
2023-04-04T18:13:11.934Z,12.50
2023-04-04T18:15:43.364Z,12.43
2023-04-04T18:18:12.695Z,12.53
2023-04-04T18:20:41.530Z,12.49
2023-04-04T18:23:10.311Z,12.48
2023-04-04T18:25:43.146Z,12.46
2023-04-04T18:28:13.439Z,12.44
2023-04-04T18:30:41.820Z,12.44
2023-04-04T18:33:11.855Z,12.45
2023-04-04T18:35:42.770Z,12.39
2023-04-04T18:38:13.276Z,12.35
2023-04-04T18:40:42.178Z,12.21
2023-04-04T18:43:10.689Z,12.18
2023-04-04T18:45:41.865Z,12.14
2023-04-04T18:48:12.439Z,12.13
2023-04-04T18:50:43.750Z,12.04
2023-04-04T18:53:12.330Z,12.01
2023-04-04T18:55:43.658Z,11.91
2023-04-04T18:58:13.012Z,11.89
2023-04-04T19:00:42.224Z,11.80
2023-04-04T19:03:13.285Z,11.79
2023-04-04T19:05:47.908Z,11.73
2023-04-04T19:08:17.741Z,11.63
2023-04-04T19:10:51.399Z,11.53
2023-04-04T19:13:21.520Z,11.46
2023-04-04T19:15:50.135Z,11.46
2023-04-04T19:18:18.936Z,11.41
2023-04-04T19:20:47.235Z,11.42
2023-04-04T19:23:15.901Z,11.38
2023-04-04T19:25:47.481Z,11.42
2023-04-04T19:28:15.741Z,11.38
2023-04-04T19:30:49.944Z,11.38
2023-04-04T19:33:21.973Z,11.34
2023-04-04T19:36:22.457Z,11.37
2023-04-04T19:38:58.151Z,11.23
2023-04-04T19:41:45.108Z,11.08
2023-04-04T19:44:19.999Z,10.97
2023-04-04T19:46:50.268Z,10.89
2023-04-04T19:49:23.576Z,10.82
2023-04-04T19:51:56.289Z,10.78
2023-04-04T19:54:34.533Z,10.73
2023-04-04T19:57:07.388Z,10.68
2023-04-04T20:00:23.032Z,10.60
2023-04-04T20:02:56.309Z,10.53
2023-04-04T20:05:47.840Z,10.49
2023-04-04T20:08:19.626Z,10.49
2023-04-04T20:10:48.039Z,10.52
2023-04-04T20:13:19.357Z,10.59
2023-04-04T20:15:49.895Z,10.64
2023-04-04T20:18:22.710Z,10.61
2023-04-04T20:21:06.854Z,10.57
2023-04-04T20:23:59.254Z,10.54
2023-04-04T20:26:36.697Z,10.54
2023-04-04T20:29:14.663Z,10.48
2023-04-04T20:31:47.829Z,10.48
2023-04-04T20:34:38.982Z,10.46
2023-04-04T20:37:22.114Z,10.49
2023-04-04T20:40:03.269Z,10.53
2023-04-04T20:42:42.671Z,10.55
2023-04-04T20:45:16.269Z,10.61
2023-04-04T20:47:50.148Z,10.78
2023-04-04T20:50:21.547Z,10.79
2023-04-04T20:52:57.116Z,10.81
2023-04-04T20:55:33.506Z,10.86
2023-04-04T20:58:10.022Z,10.92
2023-04-04T21:00:43.338Z,10.88
2023-04-04T21:03:37.173Z,10.86
2023-04-04T21:06:16.856Z,10.94
2023-04-04T21:08:49.921Z,10.95
2023-04-04T21:11:30.916Z,11.03
2023-04-04T21:13:59.617Z,11.12
2023-04-04T21:16:31.057Z,11.15
2023-04-04T21:19:02.015Z,11.16
2023-04-04T21:21:32.219Z,11.17
2023-04-04T21:24:10.882Z,11.31
2023-04-04T21:26:44.055Z,11.44
2023-04-04T21:29:23.658Z,11.50
2023-04-04T21:31:55.811Z,11.53
2023-04-04T21:34:26.568Z,11.47
2023-04-04T21:37:01.526Z,11.50
2023-04-04T21:39:31.144Z,11.66
2023-04-04T21:42:01.863Z,11.61
2023-04-04T21:44:31.357Z,11.62
2023-04-04T21:46:59.628Z,11.59
2023-04-04T21:49:28.597Z,11.40
2023-04-04T21:51:58.033Z,11.51
2023-04-04T21:54:27.936Z,11.54
2023-04-04T21:56:57.407Z,11.55
2023-04-04T21:59:28.565Z,11.46
2023-04-04T22:02:02.434Z,11.52
2023-04-04T22:04:31.693Z,11.51
2023-04-04T22:06:59.822Z,11.41
2023-04-04T22:09:48.228Z,11.37
2023-04-04T22:12:20.049Z,11.29
2023-04-04T22:14:51.103Z,11.19
2023-04-04T22:17:23.346Z,11.15
2023-04-04T22:20:03.414Z,11.17
2023-04-04T22:22:32.803Z,11.09
2023-04-04T22:25:07.757Z,10.98
2023-04-04T22:27:38.566Z,11.10
2023-04-04T22:30:10.217Z,11.02
2023-04-04T22:32:39.623Z,10.95
2023-04-04T22:35:08.158Z,11.02
2023-04-04T22:37:39.082Z,10.98
2023-04-04T22:40:13.997Z,11.04
2023-04-04T22:42:42.118Z,11.03
2023-04-04T22:45:13.566Z,10.92
2023-04-04T22:47:47.659Z,11.02
2023-04-04T22:50:27.453Z,11.03
2023-04-04T22:52:56.366Z,11.07
2023-04-04T22:55:26.724Z,11.06
2023-04-04T22:57:58.004Z,11.08
2023-04-04T23:00:26.469Z,11.11
2023-04-04T23:03:14.473Z,11.14
2023-04-04T23:05:45.937Z,11.15
2023-04-04T23:08:14.457Z,11.15
2023-04-04T23:10:43.076Z,11.18
2023-04-04T23:13:12.108Z,11.20
2023-04-04T23:15:41.674Z,11.28
2023-04-04T23:18:11.097Z,11.25
2023-04-04T23:20:39.610Z,11.13
2023-04-04T23:23:07.881Z,11.08
2023-04-04T23:25:35.769Z,10.98
2023-04-04T23:28:04.005Z,11.01
2023-04-04T23:30:32.762Z,11.01
2023-04-04T23:33:05.400Z,10.99
2023-04-04T23:35:35.144Z,10.99
2023-04-04T23:38:03.424Z,11.03
2023-04-04T23:40:32.482Z,11.04
2023-04-04T23:43:03.569Z,11.03
2023-04-04T23:45:37.627Z,11.12
2023-04-04T23:48:06.649Z,11.15
2023-04-04T23:50:35.144Z,11.17
2023-04-04T23:53:04.201Z,11.23
2023-04-04T23:55:33.176Z,11.24
2023-04-04T23:58:03.719Z,11.15
